Map

Track Data

SID SEASON NUMBER BASIN SUBBASIN NAME ISO_TIME NATURE LAT LON WMO_WIND WMO_PRES WMO_AGENCY TRACK_TYPE DIST2LAND LANDFALL IFLAG USA_AGENCY USA_ATCF_ID USA_LAT USA_LON USA_RECORD USA_STATUS USA_WIND USA_PRES USA_SSHS USA_R34_NE USA_R34_SE USA_R34_SW USA_R34_NW USA_R50_NE USA_R50_SE USA_R50_SW USA_R50_NW USA_R64_NE USA_R64_SE USA_R64_SW USA_R64_NW USA_POCI USA_ROCI USA_RMW USA_EYE TOKYO_LAT TOKYO_LON TOKYO_GRADE TOKYO_WIND TOKYO_PRES TOKYO_R50_DIR TOKYO_R50_LONG TOKYO_R50_SHORT TOKYO_R30_DIR TOKYO_R30_LONG TOKYO_R30_SHORT TOKYO_LAND CMA_LAT CMA_LON CMA_CAT CMA_WIND CMA_PRES HKO_LAT HKO_LON HKO_CAT HKO_WIND HKO_PRES NEWDELHI_LAT NEWDELHI_LON NEWDELHI_GRADE NEWDELHI_WIND NEWDELHI_PRES NEWDELHI_CI NEWDELHI_DP NEWDELHI_POCI REUNION_LAT REUNION_LON REUNION_TYPE REUNION_WIND REUNION_PRES REUNION_TNUM REUNION_CI REUNION_RMW REUNION_R34_NE REUNION_R34_SE REUNION_R34_SW REUNION_R34_NW REUNION_R50_NE REUNION_R50_SE REUNION_R50_SW REUNION_R50_NW REUNION_R64_NE REUNION_R64_SE REUNION_R64_SW REUNION_R64_NW BOM_LAT BOM_LON BOM_TYPE BOM_WIND BOM_PRES BOM_TNUM BOM_CI BOM_RMW BOM_R34_NE BOM_R34_SE BOM_R34_SW BOM_R34_NW BOM_R50_NE BOM_R50_SE BOM_R50_SW BOM_R50_NW BOM_R64_NE BOM_R64_SE BOM_R64_SW BOM_R64_NW BOM_ROCI BOM_POCI BOM_EYE BOM_POS_METHOD BOM_PRES_METHOD NADI_LAT NADI_LON NADI_CAT NADI_WIND NADI_PRES WELLINGTON_LAT WELLINGTON_LON WELLINGTON_WIND WELLINGTON_PRES DS824_LAT DS824_LON DS824_STAGE DS824_WIND DS824_PRES TD9636_LAT TD9636_LON TD9636_STAGE TD9636_WIND TD9636_PRES TD9635_LAT TD9635_LON TD9635_WIND TD9635_PRES TD9635_ROCI NEUMANN_LAT NEUMANN_LON NEUMANN_CLASS NEUMANN_WIND NEUMANN_PRES MLC_LAT MLC_LON MLC_CLASS MLC_WIND MLC_PRES USA_GUST BOM_GUST BOM_GUST_PER REUNION_GUST REUNION_GUST_PER USA_SEAHGT USA_SEARAD_NE USA_SEARAD_SE USA_SEARAD_SW USA_SEARAD_NW STORM_SPEED STORM_DIR
1977285N13150 1977 97 WP MM NOT_NAMED 1977-10-12 00:00:00 TS 13.0000 150.000 main 1715 1714 __O___________ -1 13.0000 150.000 0 1006 15 289
1977285N13150 1977 97 WP MM NOT_NAMED 1977-10-12 03:00:00 TS 13.2479 149.250 main 1726 1726 __P___________ -1 13.2479 149.250 0 1006 15 289
1977285N13150 1977 97 WP MM NOT_NAMED 1977-10-12 06:00:00 TS 13.5000 148.500 main 1751 1751 __O___________ -1 13.5000 148.500 0 1006 15 289
1977285N13150 1977 97 WP MM NOT_NAMED 1977-10-12 09:00:00 TS 13.7573 147.750 main 1781 1781 __P___________ -1 13.7573 147.750 0 1006 15 289
1977285N13150 1977 97 WP MM NOT_NAMED 1977-10-12 12:00:00 TS 14.0000 147.000 main 1803 1803 __O___________ -1 14.0000 147.000 0 19 1006 15 288
1977285N13150 1977 97 WP MM NOT_NAMED 1977-10-12 15:00:00 TS 14.2223 146.250 main 1826 1826 __P___________ -1 14.2223 146.250 0 19 1006 15 285
1977285N13150 1977 97 WP MM NOT_NAMED 1977-10-12 18:00:00 TS 14.4000 145.500 main 1852 1852 __O___________ -1 14.4000 145.500 0 19 1006 15 281
1977285N13150 1977 97 WP MM NOT_NAMED 1977-10-12 21:00:00 TS 14.5150 144.727 main 1871 1871 __P___________ -1 14.5150 144.727 0 19 1006 15 278
1977285N13150 1977 97 WP MM NOT_NAMED 1977-10-13 00:00:00 TS 14.6000 144.000 main 1892 1892 __O___________ -1 14.6000 144.000 0 19 1006 13 278
1977285N13150 1977 97 WP MM NOT_NAMED 1977-10-13 03:00:00 TS 14.6998 143.362 main 1913 1891 __P___________ -1 14.6998 143.362 0 19 1006 12 280
1977285N13150 1977 97 WP MM NOT_NAMED 1977-10-13 06:00:00 TS 14.8000 142.800 main 1891 1840 __O___________ -1 14.8000 142.800 0 19 1006 10 282
1977285N13150 1977 97 WP MM NOT_NAMED 1977-10-13 09:00:00 TS 14.9146 142.308 main 1840 1789 __P___________ -1 14.9146 142.308 0 21 1005 10 282
1977285N13150 1977 97 WP MM NOT_NAMED 1977-10-13 12:00:00 TS 15.0000 141.800 main 1789 1727 __O___________ -1 15.0000 141.800 1 23 1004 11 277
1977285N13150 1977 97 WP MM NOT_NAMED 1977-10-13 15:00:00 TS 15.0524 141.188 main 1727 1651 __P___________ -1 15.0524 141.188 1 23 1004 13 270
1977285N13150 1977 97 WP MM NOT_NAMED 1977-10-13 18:00:00 TS 15.0000 140.500 main 1651 1573 __O___________ -1 15.0000 140.500 1 23 1004 14 260
1977285N13150 1977 97 WP MM NOT_NAMED 1977-10-13 21:00:00 TS 14.8022 139.787 main 1573 1483 __P___________ -1 14.8022 139.787 1 23 1004 15 251
1977285N13150 1977 97 WP MM NOT_NAMED 1977-10-14 00:00:00 TS 14.5000 139.000 main 1483 1382 __O___________ -1 14.5000 139.000 1 23 1004 18 248
1977285N13150 1977 97 WP MM NOT_NAMED 1977-10-14 03:00:00 TS 14.1352 138.092 main 1379 1277 __P___________ -1 14.1352 138.092 1 23 1004 19 248
1977285N13150 1977 97 WP MM NOT_NAMED 1977-10-14 06:00:00 TS 13.8000 137.200 main 1277 1198 __O___________ -1 13.8000 137.200 1 23 1004 17 251
1977285N13150 1977 97 WP MM NOT_NAMED 1977-10-14 09:00:00 TS 13.5973 136.440 main 1188 1122 __P___________ -1 13.5973 136.440 1 23 1004 14 258
1977285N13150 1977 97 WP MM NOT_NAMED 1977-10-14 12:00:00 TS 13.5000 135.800 main 1122 1070 __O___________ -1 13.5000 135.800 1 23 1004 12 264
1977285N13150 1977 97 WP MM NOT_NAMED 1977-10-14 15:00:00 TS 13.4773 135.240 main 1059 1017 __P___________ -1 13.4773 135.240 1 23 1004 10 270
1977285N13150 1977 97 WP MM NOT_NAMED 1977-10-14 18:00:00 TS 13.5000 134.800 main 1017 986 __O___________ -1 13.5000 134.800 1 23 1004 7 272
1977285N13150 1977 97 WP MM NOT_NAMED 1977-10-14 21:00:00 TS 13.4998 134.478 main 986 954 __P___________ -1 13.4998 134.478 1 23 1003 6 270
1977285N13150 1977 97 WP MM NOT_NAMED 1977-10-15 00:00:00 TS 13.5000 134.200 main 954 922 __O___________ -1 13.5000 134.200 1 23 1002 6 270
1977285N13150 1977 97 WP MM NOT_NAMED 1977-10-15 03:00:00 TS 13.5000 133.857 main 922 879 __P___________ -1 13.5000 133.857 1 26 1001 7 270
1977285N13150 1977 97 WP MM NOT_NAMED 1977-10-15 06:00:00 TS 13.5000 133.500 main 879 847 __O___________ -1 13.5000 133.500 1 29 1000 7 269
1977285N13150 1977 97 WP MM NOT_NAMED 1977-10-15 09:00:00 TS 13.4925 133.142 main 837 805 __P___________ -1 13.4925 133.142 1 29 1000 7 270
1977285N13150 1977 97 WP MM NOT_NAMED 1977-10-15 12:00:00 TS 13.5000 132.800 main 805 773 __O___________ -1 13.5000 132.800 1 29 1000 6 274
1977285N13150 1977 97 WP MM NOT_NAMED 1977-10-15 15:00:00 TS 13.5349 132.500 main 773 743 __P___________ -1 13.5349 132.500 1 26 1001 6 280
1977285N13150 1977 97 WP MM NOT_NAMED 1977-10-15 18:00:00 TS 13.6000 132.200 main 743 713 __O___________ -1 13.6000 132.200 1 23 1002 6 284
1977285N13150 1977 97 WP MM NOT_NAMED 1977-10-15 21:00:00 TS 13.6926 131.863 main 713 674 __P___________ -1 13.6926 131.863 1 23 1002 7 286
1977285N13150 1977 97 WP MM NOT_NAMED 1977-10-16 00:00:00 TS 13.8000 131.500 main 674 __O___________ -1 13.8000 131.500 1 23 1002 7 287

Digital Typhoon Data and Search

About IBTrACS Database

This database is a web-friendly format of International Best Track Archive for Climate Stewardship (IBTrACS), a global best track data archive curated by NOAA dating back to 1842.

Updated: 2021-12-03